createdAt,value
2022-08-22T00:00:13.655Z,87.79
2022-08-22T00:02:55.723Z,86.54
2022-08-22T00:03:09.032Z,58.35
2022-08-22T00:03:09.593Z,63.86
2022-08-22T00:05:51.029Z,89.16
2022-08-22T00:08:33.819Z,89.50
2022-08-22T00:11:19.605Z,89.59
2022-08-22T00:14:14.076Z,89.59
2022-08-22T00:16:59.575Z,89.82
2022-08-22T00:19:50.988Z,90.12
2022-08-22T00:22:40.485Z,90.09
2022-08-22T00:25:49.892Z,90.57
2022-08-22T00:28:43.076Z,90.97
2022-08-22T00:31:11.362Z,91.19
2022-08-22T00:41:43.020Z,92.07
2022-08-22T00:44:18.676Z,92.33
2022-08-22T00:47:25.072Z,92.12
2022-08-22T00:50:46.849Z,92.36
2022-08-22T00:53:51.505Z,92.35
2022-08-22T00:56:57.419Z,92.65
2022-08-22T00:59:30.337Z,92.75
2022-08-22T01:02:54.693Z,93.17
2022-08-22T01:05:23.035Z,93.12
2022-08-22T01:08:03.069Z,93.08
2022-08-22T01:11:13.823Z,93.41
2022-08-22T01:13:42.158Z,93.63
2022-08-22T01:16:54.769Z,93.72
2022-08-22T01:19:41.902Z,93.83
2022-08-22T01:22:52.425Z,94.03
2022-08-22T01:26:06.386Z,93.96
2022-08-22T01:28:45.560Z,94.26
2022-08-22T01:32:18.454Z,94.26
2022-08-22T01:35:05.209Z,94.31
2022-08-22T01:37:43.687Z,94.58
2022-08-22T01:40:54.859Z,94.76
2022-08-22T01:43:59.239Z,95.16
2022-08-22T01:47:02.264Z,95.57
2022-08-22T01:49:50.457Z,95.81
2022-08-22T01:52:30.341Z,95.72
2022-08-22T01:55:03.517Z,95.91
2022-08-22T01:57:32.216Z,95.35
2022-08-22T02:00:07.000Z,95.44
2022-08-22T02:03:04.353Z,95.53
2022-08-22T02:05:51.517Z,96.08
2022-08-22T02:08:22.819Z,95.95
2022-08-22T02:11:06.031Z,96.00
2022-08-22T02:13:38.188Z,96.20
2022-08-22T02:16:24.464Z,96.52
2022-08-22T02:19:14.961Z,96.82
2022-08-22T02:21:43.352Z,96.53
2022-08-22T02:24:39.461Z,96.35
2022-08-22T02:27:44.179Z,96.12
2022-08-22T02:30:47.024Z,96.35
2022-08-22T02:33:39.188Z,95.18
2022-08-22T02:36:34.261Z,95.82
2022-08-22T02:39:28.677Z,96.18
2022-08-22T02:42:23.792Z,96.22
2022-08-22T02:45:41.323Z,96.29
2022-08-22T02:48:18.356Z,96.53
2022-08-22T02:50:49.696Z,97.09
2022-08-22T02:54:24.765Z,96.93
2022-08-22T02:57:20.402Z,97.37
2022-08-22T03:00:30.877Z,97.39
2022-08-22T03:03:17.222Z,97.28
2022-08-22T03:05:45.626Z,97.22
2022-08-22T03:08:25.470Z,96.98
2022-08-22T03:11:37.642Z,96.79
2022-08-22T03:14:15.794Z,96.90
2022-08-22T03:17:23.367Z,97.26
2022-08-22T03:20:03.564Z,97.80
2022-08-22T03:22:52.716Z,97.97
2022-08-22T03:26:01.115Z,97.94
2022-08-22T03:28:58.933Z,98.13
2022-08-22T03:31:29.011Z,98.19
2022-08-22T03:34:27.181Z,97.70
2022-08-22T03:37:16.290Z,97.66
2022-08-22T03:39:56.963Z,98.33
2022-08-22T03:42:35.927Z,98.35
2022-08-22T03:45:10.248Z,98.42
2022-08-22T03:48:26.340Z,98.21
2022-08-22T03:51:31.540Z,98.53
2022-08-22T03:54:15.386Z,98.71
2022-08-22T03:57:37.275Z,98.85
2022-08-22T04:00:11.398Z,98.53
2022-08-22T04:03:12.940Z,98.21
2022-08-22T04:05:55.663Z,97.92
2022-08-22T04:08:54.875Z,98.22
2022-08-22T04:12:10.576Z,98.22
2022-08-22T04:15:13.196Z,97.78
2022-08-22T04:18:19.200Z,98.28
2022-08-22T04:21:04.857Z,97.98
2022-08-22T04:24:08.530Z,98.04
2022-08-22T04:27:12.916Z,97.78
2022-08-22T04:29:59.776Z,97.51
2022-08-22T04:32:56.291Z,97.89
2022-08-22T04:35:31.153Z,97.86
2022-08-22T04:38:15.675Z,98.18
2022-08-22T04:40:50.339Z,97.72
2022-08-22T04:43:32.815Z,97.72
2022-08-22T04:46:50.731Z,97.64
2022-08-22T04:49:41.455Z,97.72
2022-08-22T04:52:36.623Z,97.53
2022-08-22T04:55:34.906Z,97.58
2022-08-22T04:58:52.010Z,97.75
2022-08-22T05:01:21.983Z,97.71
2022-08-22T05:04:02.325Z,97.80
2022-08-22T05:06:34.143Z,97.75
2022-08-22T05:09:18.839Z,98.15
2022-08-22T05:11:57.626Z,97.38
2022-08-22T05:14:37.143Z,97.37
2022-08-22T05:17:09.226Z,97.38
2022-08-22T05:19:41.811Z,97.85
2022-08-22T05:22:19.892Z,97.86
2022-08-22T05:24:54.188Z,98.08
2022-08-22T05:27:31.999Z,97.77
2022-08-22T05:30:17.243Z,96.92
2022-08-22T05:33:18.624Z,96.63
2022-08-22T05:36:00.415Z,96.57
2022-08-22T05:38:42.956Z,96.09
2022-08-22T05:41:19.281Z,96.25
2022-08-22T05:43:50.561Z,96.50
2022-08-22T05:46:44.263Z,95.98
2022-08-22T05:49:34.439Z,95.78
2022-08-22T05:52:42.499Z,95.24
2022-08-22T05:55:18.108Z,94.62
2022-08-22T05:57:54.461Z,94.16
2022-08-22T06:00:26.870Z,93.06
2022-08-22T06:03:12.871Z,92.08
2022-08-22T06:05:46.252Z,91.23
2022-08-22T06:08:33.024Z,90.38
2022-08-22T06:11:13.575Z,89.65
2022-08-22T06:13:57.562Z,89.10
2022-08-22T06:16:52.553Z,88.74
2022-08-22T06:19:21.585Z,88.18
2022-08-22T06:21:53.169Z,87.67
2022-08-22T06:24:26.371Z,87.81
2022-08-22T06:26:59.545Z,87.71
2022-08-22T06:29:40.007Z,87.43
2022-08-22T06:32:44.922Z,87.48
2022-08-22T06:35:29.798Z,87.22
2022-08-22T06:38:02.067Z,87.36
2022-08-22T06:40:31.879Z,87.64
2022-08-22T06:43:00.598Z,87.39
2022-08-22T06:45:34.193Z,87.10
2022-08-22T06:48:19.055Z,86.26
2022-08-22T06:50:53.549Z,85.47
2022-08-22T06:53:28.430Z,85.27
2022-08-22T06:56:02.732Z,85.50
2022-08-22T06:58:42.061Z,84.79
2022-08-22T07:01:36.261Z,85.47
2022-08-22T07:04:10.642Z,85.97
2022-08-22T07:06:49.276Z,86.21
2022-08-22T07:09:34.730Z,85.93
2022-08-22T07:12:20.682Z,86.01
2022-08-22T07:14:52.624Z,85.13
2022-08-22T07:17:29.135Z,84.42
2022-08-22T07:20:24.851Z,83.67
2022-08-22T07:23:08.357Z,82.20
2022-08-22T07:25:55.345Z,81.37
2022-08-22T07:28:58.466Z,80.82
2022-08-22T07:31:46.609Z,79.70
2022-08-22T07:34:44.762Z,78.30
2022-08-22T07:37:30.748Z,76.26
2022-08-22T07:40:21.771Z,75.72
2022-08-22T07:43:18.861Z,69.13
2022-08-22T07:45:57.013Z,66.70
2022-08-22T07:49:07.762Z,64.06
2022-08-22T07:51:51.684Z,64.33
2022-08-22T07:54:33.099Z,61.70
2022-08-22T07:57:09.726Z,61.57
2022-08-22T07:59:46.856Z,62.89
2022-08-22T08:02:16.889Z,62.71
2022-08-22T08:04:46.077Z,61.21
2022-08-22T08:07:19.069Z,61.36
2022-08-22T08:10:02.999Z,61.25
2022-08-22T08:12:41.628Z,61.38
2022-08-22T08:15:18.318Z,58.90
2022-08-22T08:17:50.389Z,57.25
2022-08-22T08:20:23.862Z,56.00
2022-08-22T08:22:54.124Z,55.67
2022-08-22T08:25:28.555Z,56.12
2022-08-22T08:28:18.146Z,55.68
2022-08-22T08:30:58.368Z,54.61
2022-08-22T08:33:29.885Z,54.02
2022-08-22T08:36:38.520Z,53.89
2022-08-22T08:39:12.648Z,54.13
2022-08-22T08:42:02.153Z,53.57
2022-08-22T08:44:57.028Z,53.24
2022-08-22T08:47:43.884Z,48.93
2022-08-22T08:50:27.826Z,49.43
2022-08-22T08:53:52.977Z,51.05
2022-08-22T08:56:33.562Z,50.99
2022-08-22T08:59:15.327Z,51.08
2022-08-22T09:02:27.276Z,50.13
2022-08-22T09:05:29.913Z,50.06
2022-08-22T09:08:42.434Z,50.59
2022-08-22T09:11:57.998Z,48.09
2022-08-22T09:15:18.026Z,49.02
2022-08-22T09:17:46.578Z,48.15
2022-08-22T09:20:47.730Z,48.63
2022-08-22T09:23:55.977Z,49.53
2022-08-22T09:26:28.255Z,49.69
2022-08-22T09:29:24.823Z,50.96
2022-08-22T09:32:00.094Z,50.12
2022-08-22T09:34:50.040Z,46.54
2022-08-22T09:37:21.332Z,46.07
2022-08-22T09:43:02.876Z,45.49
2022-08-22T09:45:43.170Z,44.44
2022-08-22T09:48:38.830Z,45.13
2022-08-22T09:51:54.338Z,45.00
2022-08-22T09:54:49.679Z,44.30
2022-08-22T09:57:38.884Z,43.19
2022-08-22T10:00:09.213Z,43.32
2022-08-22T10:02:56.229Z,44.37
2022-08-22T10:05:46.434Z,45.95
2022-08-22T10:08:41.563Z,43.76
2022-08-22T10:11:31.849Z,44.69
2022-08-22T10:14:25.570Z,45.34
2022-08-22T10:17:07.250Z,44.43
2022-08-22T10:19:53.710Z,44.78
2022-08-22T10:22:47.416Z,45.06
2022-08-22T10:25:44.877Z,45.03
2022-08-22T10:28:37.845Z,44.95
2022-08-22T10:31:31.007Z,45.40
2022-08-22T10:34:16.384Z,45.62
2022-08-22T10:37:00.928Z,45.96
2022-08-22T10:39:43.991Z,44.87
2022-08-22T10:42:28.596Z,44.39
2022-08-22T10:45:37.063Z,44.67
2022-08-22T10:48:17.504Z,45.67
2022-08-22T10:50:53.238Z,44.28
2022-08-22T10:54:01.066Z,45.68
2022-08-22T10:56:36.472Z,46.52
2022-08-22T10:59:28.229Z,45.92
2022-08-22T11:02:44.744Z,45.43
2022-08-22T11:05:16.179Z,44.06
2022-08-22T11:08:26.663Z,45.27
2022-08-22T11:11:18.239Z,45.60
2022-08-22T11:14:03.113Z,45.70
2022-08-22T11:17:00.623Z,45.31
2022-08-22T11:19:58.674Z,45.71
2022-08-22T11:22:34.775Z,45.05
2022-08-22T11:25:39.146Z,46.94
2022-08-22T11:28:48.325Z,46.79
2022-08-22T11:31:36.758Z,46.86
2022-08-22T11:34:05.162Z,47.05
2022-08-22T11:36:55.547Z,47.45
2022-08-22T11:39:35.878Z,48.26
2022-08-22T11:42:26.123Z,48.04
2022-08-22T11:45:01.639Z,47.94
2022-08-22T11:47:35.216Z,48.20
2022-08-22T11:50:35.196Z,48.94
2022-08-22T11:53:43.255Z,47.69
2022-08-22T11:56:36.684Z,46.63
2022-08-22T11:59:47.733Z,46.32
2022-08-22T12:02:39.431Z,47.68
2022-08-22T12:05:35.678Z,46.54
2022-08-22T12:08:28.353Z,46.08
2022-08-22T12:11:12.516Z,48.59
2022-08-22T12:14:09.402Z,48.13
2022-08-22T12:17:55.714Z,46.88
2022-08-22T12:21:33.994Z,45.34
2022-08-22T12:24:45.834Z,43.60
2022-08-22T12:27:34.622Z,43.29
2022-08-22T12:30:29.987Z,44.15
2022-08-22T12:33:40.994Z,44.96
2022-08-22T12:36:26.457Z,44.76
2022-08-22T12:39:04.383Z,43.83
2022-08-22T12:42:19.367Z,44.42
2022-08-22T12:45:25.530Z,43.99
2022-08-22T12:48:08.934Z,44.13
2022-08-22T12:50:57.170Z,44.05
2022-08-22T12:53:57.988Z,45.26
2022-08-22T12:57:04.274Z,46.97
2022-08-22T12:59:58.074Z,44.99
2022-08-22T13:02:32.708Z,45.48
2022-08-22T13:05:20.052Z,45.31
2022-08-22T13:08:04.319Z,44.88
2022-08-22T13:10:58.291Z,45.63
2022-08-22T13:13:37.109Z,45.06
2022-08-22T13:16:11.989Z,45.44
2022-08-22T13:19:07.714Z,44.83
2022-08-22T13:21:48.380Z,46.14
2022-08-22T13:24:38.691Z,44.62
2022-08-22T13:27:15.628Z,44.99
2022-08-22T13:30:02.376Z,44.45
2022-08-22T13:32:44.465Z,44.68
2022-08-22T13:35:35.207Z,46.10
2022-08-22T13:38:22.068Z,45.06
2022-08-22T13:40:57.843Z,44.57
2022-08-22T13:43:35.743Z,43.96
2022-08-22T13:46:10.874Z,43.26
2022-08-22T13:48:55.722Z,43.58
2022-08-22T13:51:35.953Z,43.29
2022-08-22T13:54:12.705Z,43.15
2022-08-22T13:57:03.204Z,43.10
2022-08-22T13:59:52.448Z,42.43
2022-08-22T14:02:30.977Z,41.66
2022-08-22T14:05:07.316Z,41.63
2022-08-22T14:08:04.793Z,42.14
2022-08-22T14:10:50.526Z,43.64
2022-08-22T14:13:48.435Z,42.19
2022-08-22T14:16:25.226Z,42.59
2022-08-22T14:19:00.647Z,42.41
2022-08-22T14:21:55.967Z,43.28
2022-08-22T14:24:45.578Z,43.54
2022-08-22T14:27:57.758Z,42.88
2022-08-22T14:30:59.409Z,43.61
2022-08-22T14:33:51.343Z,43.32
2022-08-22T14:36:29.352Z,43.60
2022-08-22T14:39:24.608Z,43.82
2022-08-22T14:42:04.111Z,44.29
2022-08-22T14:45:08.387Z,44.43
2022-08-22T14:47:55.290Z,44.64
2022-08-22T14:50:53.869Z,44.35
2022-08-22T14:53:25.114Z,44.34
2022-08-22T14:56:18.060Z,43.94
2022-08-22T14:58:59.683Z,44.25
2022-08-22T15:01:34.121Z,43.93
2022-08-22T15:04:09.990Z,44.84
2022-08-22T15:06:47.831Z,45.27
2022-08-22T15:09:58.533Z,43.51
2022-08-22T15:12:38.880Z,43.93
2022-08-22T15:15:16.862Z,44.64
2022-08-22T15:17:50.805Z,45.37
2022-08-22T15:20:49.354Z,44.58
2022-08-22T15:23:24.845Z,44.47
2022-08-22T15:26:13.219Z,43.99
2022-08-22T15:28:52.367Z,44.66
2022-08-22T15:31:24.571Z,45.75
2022-08-22T15:33:53.259Z,45.20
2022-08-22T15:36:24.538Z,45.06
2022-08-22T15:38:57.201Z,45.10
2022-08-22T15:41:36.906Z,43.52
2022-08-22T15:44:32.981Z,43.78
2022-08-22T15:47:27.638Z,44.70
2022-08-22T15:50:05.433Z,44.10
2022-08-22T15:53:17.590Z,44.66
2022-08-22T15:56:30.194Z,44.86
2022-08-22T15:59:53.991Z,45.32
2022-08-22T16:02:36.809Z,45.62
2022-08-22T16:05:11.785Z,46.24
2022-08-22T16:08:33.501Z,46.14
2022-08-22T16:11:05.437Z,45.70
2022-08-22T16:13:43.275Z,45.34
2022-08-22T16:17:28.753Z,45.39
2022-08-22T16:20:19.211Z,46.37
2022-08-22T16:23:00.068Z,46.67
2022-08-22T16:25:46.357Z,46.57
2022-08-22T16:28:57.892Z,47.08
2022-08-22T16:31:52.887Z,46.89
2022-08-22T16:34:48.084Z,47.19
2022-08-22T16:37:18.024Z,47.76
2022-08-22T16:40:00.982Z,47.59
2022-08-22T16:42:35.545Z,47.40
2022-08-22T16:45:05.324Z,48.08
2022-08-22T16:47:34.167Z,48.25
2022-08-22T16:50:07.658Z,48.12
2022-08-22T16:52:38.742Z,48.99
2022-08-22T16:55:31.356Z,48.63
2022-08-22T16:58:08.154Z,48.36
2022-08-22T17:01:04.465Z,47.89
2022-08-22T17:04:06.958Z,47.26
2022-08-22T17:07:22.932Z,46.67
2022-08-22T17:10:32.218Z,46.82
2022-08-22T17:13:27.690Z,46.73
2022-08-22T17:16:03.317Z,46.86
2022-08-22T17:18:59.022Z,46.83
2022-08-22T17:21:53.862Z,47.87
2022-08-22T17:24:48.662Z,46.71
2022-08-22T17:27:35.139Z,46.65
2022-08-22T17:30:31.860Z,46.35
2022-08-22T17:33:54.318Z,46.48
2022-08-22T17:37:18.283Z,46.91
2022-08-22T17:40:17.206Z,47.11
2022-08-22T17:43:03.850Z,47.15
2022-08-22T17:46:03.130Z,47.12
2022-08-22T17:48:52.151Z,47.39
2022-08-22T17:51:55.199Z,47.02
2022-08-22T17:54:38.054Z,47.62
2022-08-22T18:01:55.159Z,48.49
2022-08-22T18:05:04.672Z,48.86
2022-08-22T18:11:40.310Z,49.45
2022-08-22T18:14:33.622Z,49.06
2022-08-22T18:17:02.073Z,49.39
2022-08-22T18:20:37.009Z,49.68
2022-08-22T18:23:21.248Z,49.75
2022-08-22T18:26:05.647Z,50.47
2022-08-22T18:28:50.179Z,50.35
2022-08-22T18:31:48.036Z,50.91
2022-08-22T18:34:20.116Z,51.09
2022-08-22T18:37:05.446Z,50.92
2022-08-22T18:40:05.900Z,51.32
2022-08-22T18:42:46.828Z,51.83
2022-08-22T18:45:49.771Z,51.76
2022-08-22T18:49:11.653Z,52.31
2022-08-22T18:51:38.327Z,52.79
2022-08-22T18:54:07.099Z,52.97
2022-08-22T18:56:54.078Z,53.09
2022-08-22T18:59:47.728Z,53.44
2022-08-22T19:02:41.931Z,54.30
2022-08-22T19:05:46.309Z,54.80
2022-08-22T19:08:35.180Z,55.08
2022-08-22T19:11:38.786Z,55.40
2022-08-22T19:14:09.876Z,56.21
2022-08-22T19:17:05.005Z,56.25
2022-08-22T19:20:22.617Z,56.67
2022-08-22T19:22:51.384Z,57.21
2022-08-22T19:25:55.650Z,57.35
2022-08-22T19:28:43.663Z,57.49
2022-08-22T19:31:38.900Z,57.68
2022-08-22T19:34:30.663Z,58.34
2022-08-22T19:37:32.613Z,58.68
2022-08-22T19:40:16.115Z,59.25
2022-08-22T19:42:49.875Z,59.21
2022-08-22T19:45:28.883Z,59.77
2022-08-22T19:48:13.126Z,60.04
2022-08-22T19:50:44.956Z,60.00
2022-08-22T19:53:51.038Z,60.59
2022-08-22T19:56:19.665Z,60.71
2022-08-22T19:59:26.762Z,60.95
2022-08-22T20:02:07.074Z,60.77
2022-08-22T20:05:24.103Z,61.00
2022-08-22T20:08:31.444Z,61.12
2022-08-22T20:11:28.207Z,61.69
2022-08-22T20:14:24.981Z,62.61
2022-08-22T20:16:59.328Z,61.80
2022-08-22T20:22:39.786Z,62.87
2022-08-22T20:25:42.792Z,63.97
2022-08-22T20:28:34.359Z,65.07
2022-08-22T20:31:07.616Z,63.64
2022-08-22T20:33:41.183Z,62.72
2022-08-22T20:36:18.614Z,62.67
2022-08-22T20:39:06.465Z,62.26
2022-08-22T20:41:43.233Z,62.50
2022-08-22T20:44:24.105Z,62.57
2022-08-22T20:47:32.335Z,62.55
2022-08-22T20:50:12.279Z,62.69
2022-08-22T20:52:54.370Z,63.47
2022-08-22T20:55:31.731Z,64.36
2022-08-22T20:58:04.534Z,64.45
2022-08-22T21:00:44.202Z,65.40
2022-08-22T21:04:08.435Z,66.43
2022-08-22T21:06:35.005Z,66.42
2022-08-22T21:09:40.238Z,64.50
2022-08-22T21:12:09.438Z,64.21
2022-08-22T21:14:44.560Z,65.48
2022-08-22T21:17:23.010Z,65.81
2022-08-22T21:19:51.811Z,66.61
2022-08-22T21:22:32.258Z,67.04
2022-08-22T21:25:02.208Z,67.93
2022-08-22T21:27:35.591Z,68.28
2022-08-22T21:30:08.417Z,68.58
2022-08-22T21:32:43.633Z,68.73
2022-08-22T21:35:30.284Z,69.52
2022-08-22T21:38:01.006Z,69.52
2022-08-22T21:40:39.566Z,69.50
2022-08-22T21:43:07.960Z,69.89
2022-08-22T21:45:39.012Z,70.39
2022-08-22T21:49:01.206Z,70.71
2022-08-22T21:51:37.409Z,71.44
2022-08-22T21:54:28.039Z,71.38
2022-08-22T21:57:00.198Z,71.72
2022-08-22T21:59:51.868Z,71.71
2022-08-22T22:02:43.866Z,72.46
2022-08-22T22:05:18.312Z,73.22
2022-08-22T22:07:48.711Z,73.52
2022-08-22T22:10:21.107Z,73.83
2022-08-22T22:12:51.881Z,73.95
2022-08-22T22:15:24.787Z,73.99
2022-08-22T22:17:53.827Z,74.36
2022-08-22T22:20:26.196Z,74.72
2022-08-22T22:22:55.164Z,75.17
2022-08-22T22:25:40.759Z,74.73
2022-08-22T22:28:25.104Z,75.11
2022-08-22T22:30:54.230Z,75.63
2022-08-22T22:33:26.331Z,76.37
2022-08-22T22:35:59.030Z,75.89
2022-08-22T22:38:27.586Z,75.89
2022-08-22T22:40:55.952Z,76.10
2022-08-22T22:43:24.380Z,75.83
2022-08-22T22:45:52.815Z,75.87
2022-08-22T22:48:24.251Z,76.03
2022-08-22T22:50:54.164Z,76.20
2022-08-22T22:53:38.593Z,76.80
2022-08-22T22:56:13.019Z,77.15
2022-08-22T22:58:42.386Z,77.42
2022-08-22T23:01:25.248Z,77.66
2022-08-22T23:04:05.445Z,77.74
2022-08-22T23:06:34.696Z,77.99
2022-08-22T23:09:03.260Z,77.99
2022-08-22T23:11:32.305Z,78.60
2022-08-22T23:14:02.070Z,78.78
2022-08-22T23:16:36.963Z,79.00
2022-08-22T23:19:10.618Z,79.75
2022-08-22T23:21:39.072Z,79.97
2022-08-22T23:24:07.905Z,80.54
2022-08-22T23:26:37.004Z,80.55
2022-08-22T23:29:05.900Z,80.75
2022-08-22T23:31:40.069Z,80.88
2022-08-22T23:34:15.743Z,79.03
2022-08-22T23:36:47.413Z,79.68
2022-08-22T23:39:17.461Z,80.50
2022-08-22T23:41:47.371Z,80.95
2022-08-22T23:44:19.423Z,80.37
2022-08-22T23:46:48.284Z,80.67
2022-08-22T23:49:17.057Z,80.67
2022-08-22T23:51:47.132Z,81.05
2022-08-22T23:54:16.500Z,81.22
2022-08-22T23:56:55.742Z,81.29
2022-08-22T23:59:31.021Z,81.37
